Jordan, MT

5:21 AM MST on December 04, 2016 (GMT -0700)
Jordan | | Change Station

Elev 2661 ft 47.33 °N, 106.95 °W | Updated 33 minutes ago

Unknown
N/A
21 °F
Feels Like 15 °F
N
5
Wind Variable Wind from NW

Today
High -- | Low -- °F
--% Chance of Precip.
Yesterday
High -- | Low -- °F
Precip. -- in
Pressure 29.91 in
Visibility -9999.0 miles
Clouds
Windchill 15 °F
Dew Point 17 °F
Humidity 85%
Rainfall 0.00 in
Snow Depth Not available.
7:38 AM 4:18 PM
Waxing Crescent, 22% visible
METAR KJDN 041148Z AUTO 31004KT M06/M08 A2979 RMK AO1 SLP126 T10611083 11056 21072 58017
Pressure 29.91 in
Visibility -9999.0 miles
Clouds
Windchill 15 °F
Dew Point 17 °F
Humidity 85%
Rainfall 0.00 in
Snow Depth Not available.
7:38 AM 4:18 PM
Waxing Crescent, 22% visible
METAR KJDN 041148Z AUTO 31004KT M06/M08 A2979 RMK AO1 SLP126 T10611083 11056 21072 58017

10-Day Weather Forecast

Almanac

Astronomy

Dec. 04, 2016 Rise Set
Actual Time
Civil Twilight
Nautical Twilight
Astronomical Twilight
Moon
Length of Visible Light
Length of Day
Tomorrow will be .
, % of the Moon is Illuminated

Today's Extremes

State Highs State Lows

Community

WunderPhotos

Upload Photos

1,955,593 photos uploaded!

WunderBlog® & News

Nearby

Air Quality

  Air Quality AQ Index Pollutant
Not available.

Snow Depth

Station Depth Elevation

Earthquake Activity

City Distance Mag. Time & Date
Minimum magnitude displayed is 2.5.

Coastal Water Temperatures

Place Temperature

Stations

Nearby Weather Stations

Station Location Temp. Windchill Dew Point Humidity Wind Precip. Elev Updated Type
                   

Watches & Warnings

There are currently no watches in effect.